Terminal Aerodrome Forecast
Issued by NWS North Platte, NE

Home | Current Version | Previous Version | Text Only | Print | Product List | Glossary Off
Versions: 1 2 3 4 5 6 7 8 9 10 11 12 13 14 15 16 17 18 19 20 21 22

000
FTUS43 KLBF 270535
TAFVTN
TAF
KVTN 270535Z 2706/2806 14015G27KT 6SM -SHRA BR FEW025 BKN090
     FM270700 14017G25KT 6SM BR SCT020 BKN090
     FM271200 VRB06KT P6SM BKN015 BKN150
     FM271600 03008KT P6SM SCT015 SCT150
     FM271800 04010KT P6SM SCT060 BKN200
     FM272100 04012KT P6SM SCT060 BKN200 PROB30 2722/2803 P6SM -TSRA
      BKN060CB BKN120=

USA.gov is the U.S. government's official web portal to all federal, state and local government web resources and services.